Time,TemperatureF,DewpointF,PressureIn,WindDirection,WindDirectionDegrees,WindSpeedMPH,WindSpeedGustMPH,Humidity,HourlyPrecipIn,Conditions,Clouds,dailyrainin,SoftwareType,DateUTC
2016-02-13 00:00:00,56.2,49.8,30.21,North,0,0.0,1.0,79,0.00,,,0.00,VWS V12.08,2016-02-13 06:00:00,
2016-02-13 00:05:00,55.9,48.8,30.21,NNE,17,0.0,1.0,77,0.00,,,0.00,VWS V12.08,2016-02-13 06:05:00,
2016-02-13 00:10:00,55.9,48.1,30.21,NNW,344,0.0,3.0,75,0.00,,,0.00,VWS V12.08,2016-02-13 06:10:00,
2016-02-13 00:15:00,56.0,47.8,30.21,NNW,347,0.0,4.0,74,0.00,,,0.00,VWS V12.08,2016-02-13 06:15:00,
2016-02-13 00:20:00,55.7,46.5,30.21,North,0,0.0,6.0,71,0.00,,,0.00,VWS V12.08,2016-02-13 06:20:00,
2016-02-13 00:25:00,55.9,46.7,30.21,North,0,0.0,0.0,71,0.00,,,0.00,VWS V12.08,2016-02-13 06:25:00,
2016-02-13 00:30:00,55.9,46.7,30.22,North,0,0.0,2.0,71,0.00,,,0.00,VWS V12.08,2016-02-13 06:30:00,
2016-02-13 00:35:00,55.9,46.7,30.22,North,0,0.0,0.0,71,0.00,,,0.00,VWS V12.08,2016-02-13 06:35:00,
2016-02-13 00:40:00,55.3,46.1,30.22,North,359,0.0,2.0,71,0.00,,,0.00,VWS V12.08,2016-02-13 06:40:00,
2016-02-13 00:50:00,55.2,44.8,30.22,NNW,340,0.0,10.0,68,0.00,,,0.00,VWS V12.08,2016-02-13 06:50:00,
2016-02-13 00:55:00,55.2,44.5,30.22,North,350,0.0,5.0,67,0.00,,,0.00,VWS V12.08,2016-02-13 06:55:00,
2016-02-13 01:00:00,55.0,44.3,30.22,North,354,0.0,5.0,67,0.00,,,0.00,VWS V12.08,2016-02-13 07:00:00,
2016-02-13 01:05:00,55.1,43.6,30.22,NNW,342,4.0,6.0,65,0.00,,,0.00,VWS V12.08,2016-02-13 07:05:00,
2016-02-13 01:10:00,54.9,43.0,30.22,North,0,1.0,6.0,64,0.00,,,0.00,VWS V12.08,2016-02-13 07:10:00,
2016-02-13 01:15:00,55.0,43.1,30.22,NNW,337,0.0,4.0,64,0.00,,,0.00,VWS V12.08,2016-02-13 07:15:00,
2016-02-13 01:20:00,54.8,42.9,30.22,North,8,2.0,5.0,64,0.00,,,0.00,VWS V12.08,2016-02-13 07:20:00,
2016-02-13 01:25:00,54.8,42.9,30.22,North,350,0.0,3.0,64,0.00,,,0.00,VWS V12.08,2016-02-13 07:25:00,
2016-02-13 01:30:00,54.5,42.2,30.22,NNW,329,1.0,5.0,63,0.00,,,0.00,VWS V12.08,2016-02-13 07:30:00,
2016-02-13 01:35:00,54.3,42.0,30.22,North,0,7.0,7.0,63,0.00,,,0.00,VWS V12.08,2016-02-13 07:35:00,
2016-02-13 01:40:00,54.2,41.5,30.22,NNW,335,0.0,7.0,62,0.00,,,0.00,VWS V12.08,2016-02-13 07:40:00,
2016-02-13 01:45:00,54.2,41.5,30.22,North,0,3.0,3.0,62,0.00,,,0.00,VWS V12.08,2016-02-13 07:45:00,
2016-02-13 01:50:00,54.1,41.4,30.22,North,356,0.0,5.0,62,0.00,,,0.00,VWS V12.08,2016-02-13 07:50:00,
2016-02-13 01:55:00,54.1,41.4,30.22,NW,319,2.0,5.0,62,0.00,,,0.00,VWS V12.08,2016-02-13 07:55:00,
2016-02-13 02:00:00,53.8,41.1,30.22,North,4,1.0,5.0,62,0.00,,,0.00,VWS V12.08,2016-02-13 08:00:00,
2016-02-13 02:05:00,53.6,40.9,30.22,NNW,342,2.0,3.0,62,0.00,,,0.00,VWS V12.08,2016-02-13 08:05:00,
2016-02-13 02:10:00,53.5,41.2,30.22,NW,316,5.0,5.0,63,0.00,,,0.00,VWS V12.08,2016-02-13 08:10:00,
2016-02-13 02:15:00,53.3,41.0,30.22,NNW,343,2.0,5.0,63,0.00,,,0.00,VWS V12.08,2016-02-13 08:15:00,
2016-02-13 02:20:00,53.1,41.3,30.22,NNE,13,0.0,6.0,64,0.00,,,0.00,VWS V12.08,2016-02-13 08:20:00,
2016-02-13 02:30:00,52.8,41.0,30.23,North,0,1.0,6.0,64,0.00,,,0.00,VWS V12.08,2016-02-13 08:30:00,
2016-02-13 02:35:00,52.6,40.4,30.23,NW,323,7.0,7.0,63,0.00,,,0.00,VWS V12.08,2016-02-13 08:35:00,
2016-02-13 02:40:00,52.3,40.1,30.23,North,354,2.0,7.0,63,0.00,,,0.00,VWS V12.08,2016-02-13 08:40:00,
2016-02-13 02:45:00,52.3,39.7,30.23,North,356,1.0,4.0,62,0.00,,,0.00,VWS V12.08,2016-02-13 08:45:00,
2016-02-13 02:50:00,52.2,39.6,30.23,North,0,0.0,4.0,62,0.00,,,0.00,VWS V12.08,2016-02-13 08:50:00,
2016-02-13 02:55:00,52.0,40.2,30.23,North,352,0.0,3.0,64,0.00,,,0.00,VWS V12.08,2016-02-13 08:55:00,
2016-02-13 03:00:00,51.8,40.0,30.23,NW,323,0.0,3.0,64,0.00,,,0.00,VWS V12.08,2016-02-13 09:00:00,
2016-02-13 03:05:00,51.6,39.8,30.23,SSW,192,0.0,2.0,64,0.00,,,0.00,VWS V12.08,2016-02-13 09:05:00,
2016-02-13 03:10:00,51.4,39.7,30.23,NNW,333,7.0,7.0,64,0.00,,,0.00,VWS V12.08,2016-02-13 09:10:00,
2016-02-13 03:15:00,51.2,39.0,30.24,NNE,17,3.0,5.0,63,0.00,,,0.00,VWS V12.08,2016-02-13 09:15:00,
2016-02-13 03:20:00,51.1,39.8,30.24,North,0,0.0,5.0,65,0.00,,,0.00,VWS V12.08,2016-02-13 09:20:00,
2016-02-13 03:25:00,50.7,39.4,30.24,North,353,6.0,6.0,65,0.00,,,0.00,VWS V12.08,2016-02-13 09:25:00,
2016-02-13 03:30:00,50.7,39.0,30.24,NNE,13,2.0,8.0,64,0.00,,,0.00,VWS V12.08,2016-02-13 09:30:00,
2016-02-13 03:35:00,50.5,38.8,30.24,North,0,2.0,2.0,64,0.00,,,0.00,VWS V12.08,2016-02-13 09:35:00,
2016-02-13 03:40:00,50.3,38.6,30.24,NNW,340,1.0,6.0,64,0.00,,,0.00,VWS V12.08,2016-02-13 09:40:00,
2016-02-13 03:45:00,50.2,38.9,30.25,North,0,0.0,8.0,65,0.00,,,0.00,VWS V12.08,2016-02-13 09:45:00,
2016-02-13 03:50:00,49.9,38.2,30.25,NW,309,0.0,8.0,64,0.00,,,0.00,VWS V12.08,2016-02-13 09:50:00,
2016-02-13 03:55:00,49.7,37.6,30.25,North,0,2.0,7.0,63,0.00,,,0.00,VWS V12.08,2016-02-13 09:55:00,
2016-02-13 04:00:00,49.7,37.2,30.26,NNW,344,1.0,7.0,62,0.00,,,0.00,VWS V12.08,2016-02-13 10:00:00,
2016-02-13 04:05:00,49.6,37.1,30.26,NNW,340,2.0,5.0,62,0.00,,,0.00,VWS V12.08,2016-02-13 10:05:00,
2016-02-13 04:10:00,49.6,37.1,30.26,NW,312,1.0,5.0,62,0.00,,,0.00,VWS V12.08,2016-02-13 10:10:00,
2016-02-13 04:15:00,49.5,37.0,30.26,ENE,71,0.0,8.0,62,0.00,,,0.00,VWS V12.08,2016-02-13 10:15:00,
2016-02-13 04:20:00,49.5,37.0,30.26,NNW,337,1.0,8.0,62,0.00,,,0.00,VWS V12.08,2016-02-13 10:20:00,
2016-02-13 04:30:00,49.0,36.2,30.27,NE,37,0.0,5.0,61,0.00,,,0.00,VWS V12.08,2016-02-13 10:30:00,
2016-02-13 04:35:00,48.8,36.0,30.27,North,0,1.0,2.0,61,0.00,,,0.00,VWS V12.08,2016-02-13 10:35:00,
2016-02-13 04:40:00,48.8,36.4,30.27,North,0,2.0,3.0,62,0.00,,,0.00,VWS V12.08,2016-02-13 10:40:00,
2016-02-13 04:45:00,48.6,35.8,30.27,NNE,28,0.0,2.0,61,0.00,,,0.00,VWS V12.08,2016-02-13 10:45:00,
2016-02-13 04:50:00,48.2,35.8,30.27,ENE,62,0.0,2.0,62,0.00,,,0.00,VWS V12.08,2016-02-13 10:50:00,
2016-02-13 04:55:00,48.2,35.8,30.27,NNE,20,0.0,2.0,62,0.00,,,0.00,VWS V12.08,2016-02-13 10:55:00,
2016-02-13 05:00:00,48.1,35.7,30.28,North,3,0.0,2.0,62,0.00,,,0.00,VWS V12.08,2016-02-13 11:00:00,
2016-02-13 05:05:00,47.9,35.5,30.28,North,3,0.0,2.0,62,0.00,,,0.00,VWS V12.08,2016-02-13 11:05:00,
2016-02-13 05:10:00,47.6,35.2,30.28,North,0,0.0,5.0,62,0.00,,,0.00,VWS V12.08,2016-02-13 11:10:00,
2016-02-13 05:15:00,47.7,34.9,30.29,ENE,61,0.0,4.0,61,0.00,,,0.00,VWS V12.08,2016-02-13 11:15:00,
2016-02-13 05:25:00,47.5,35.1,30.29,North,357,1.0,3.0,62,0.00,,,0.00,VWS V12.08,2016-02-13 11:25:00,
2016-02-13 05:30:00,47.4,35.0,30.30,NNW,328,0.0,5.0,62,0.00,,,0.00,VWS V12.08,2016-02-13 11:30:00,
2016-02-13 05:35:00,47.3,35.0,30.30,North,0,0.0,2.0,62,0.00,,,0.00,VWS V12.08,2016-02-13 11:35:00,
2016-02-13 05:40:00,47.1,34.8,30.30,WNW,299,0.0,3.0,62,0.00,,,0.00,VWS V12.08,2016-02-13 11:40:00,
2016-02-13 05:45:00,46.9,34.6,30.31,East,97,1.0,6.0,62,0.00,,,0.00,VWS V12.08,2016-02-13 11:45:00,
2016-02-13 05:50:00,46.7,34.4,30.31,NNW,346,1.0,6.0,62,0.00,,,0.00,VWS V12.08,2016-02-13 11:50:00,
2016-02-13 05:55:00,46.7,34.0,30.31,NNE,28,1.0,3.0,61,0.00,,,0.00,VWS V12.08,2016-02-13 11:55:00,
2016-02-13 06:00:00,46.7,33.6,30.32,East,95,1.0,3.0,60,0.00,,,0.00,VWS V12.08,2016-02-13 12:00:00,
2016-02-13 06:05:00,46.6,33.0,30.32,East,96,0.0,3.0,59,0.00,,,0.00,VWS V12.08,2016-02-13 12:05:00,
2016-02-13 06:10:00,46.7,33.6,30.32,ENE,62,0.0,3.0,60,0.00,,,0.00,VWS V12.08,2016-02-13 12:10:00,
2016-02-13 06:15:00,46.7,33.2,30.32,NNE,24,0.0,3.0,59,0.00,,,0.00,VWS V12.08,2016-02-13 12:15:00,